Time;durP1;ratioP1;P1;durP2;ratioP2;P2;SDS_P1;SDS_P2;PMS_P1;PMS_P2;Temp;Humidity;BMP_temperature;BMP_pressure;BME280_temperature;BME280_humidity;BME280_pressure;Samples;Min_cycle;Max_cycle;Signal;HPM_P1;HPM_P2
2022/04/22 00:01:27;;;;;;;5.57;3.27;;;7.40;99.90;;;;;;5013057;28;20584;-86
2022/04/22 00:03:53;;;;;;;7.03;3.30;;;7.40;99.90;;;;;;5012832;28;20209;-85
2022/04/22 00:06:19;;;;;;;3.93;2.73;;;7.40;99.90;;;;;;4995322;28;20223;-85
2022/04/22 00:08:45;;;;;;;5.80;4.60;;;7.40;99.90;;;;;;5012792;28;20260;-85
2022/04/22 00:13:57;;;;;;;6.07;3.13;;;7.40;99.90;;;;;;5013079;28;20200;-86
2022/04/22 00:16:22;;;;;;;4.70;2.93;;;7.40;99.90;;;;;;4995543;28;20227;-85
2022/04/22 00:18:48;;;;;;;10.33;3.97;;;7.40;99.90;;;;;;5012398;28;20209;-86
2022/04/22 00:21:14;;;;;;;6.70;4.07;;;7.40;99.90;;;;;;4978830;28;20609;-85
2022/04/22 00:23:40;;;;;;;8.67;3.50;;;7.40;99.90;;;;;;4978264;28;20597;-85
2022/04/22 00:26:05;;;;;;;6.23;3.53;;;7.40;99.90;;;;;;4994479;28;20248;-85
2022/04/22 00:28:31;;;;;;;6.57;4.50;;;7.40;99.90;;;;;;5012773;28;20262;-85
2022/04/22 00:30:57;;;;;;;8.63;5.20;;;7.40;99.90;;;;;;5012663;28;20200;-85
2022/04/22 00:33:22;;;;;;;5.03;3.40;;;7.40;99.90;;;;;;5014469;28;20695;-85
2022/04/22 00:35:48;;;;;;;7.60;4.20;;;7.30;99.90;;;;;;5015861;28;20181;-85
2022/04/22 00:38:15;;;;;;;6.23;4.00;;;7.30;99.90;;;;;;5016197;28;20181;-85
2022/04/22 00:40:41;;;;;;;3.60;3.30;;;7.30;99.90;;;;;;5015912;28;20641;-85
2022/04/22 00:43:21;;;;;;;3.57;2.67;;;7.30;99.90;;;;;;5016151;28;20209;-85
2022/04/22 00:45:48;;;;;;;4.37;3.20;;;7.30;99.90;;;;;;5016096;28;20177;-85
2022/04/22 00:48:16;;;;;;;7.30;3.83;;;7.30;99.90;;;;;;5016459;28;20224;-85
2022/04/22 00:50:42;;;;;;;4.57;2.97;;;7.30;99.90;;;;;;5016163;28;20181;-85
2022/04/22 00:53:08;;;;;;;7.73;4.17;;;7.30;99.90;;;;;;4998888;28;20217;-85
2022/04/22 00:55:36;;;;;;;6.13;3.17;;;7.40;99.90;;;;;;5026210;28;20243;-84
2022/04/22 00:58:02;;;;;;;6.67;3.73;;;7.40;99.90;;;;;;5035871;28;20234;-85
2022/04/22 01:00:28;;;;;;;6.00;4.57;;;7.30;99.90;;;;;;5020657;28;20165;-85
2022/04/22 01:02:54;;;;;;;6.13;4.10;;;7.30;99.90;;;;;;5037037;28;20264;-86
2022/04/22 01:10:51;;;;;;;6.53;2.97;;;7.30;99.90;;;;;;5029087;28;20196;-85
2022/04/22 01:13:17;;;;;;;2.47;2.27;;;7.60;99.90;;;;;;5011738;28;20181;-85
2022/04/22 01:15:43;;;;;;;6.30;3.20;;;7.30;99.90;;;;;;5006631;28;20188;-85
2022/04/22 01:18:09;;;;;;;5.07;4.40;;;7.30;99.90;;;;;;5022020;28;20192;-85
2022/04/22 01:20:35;;;;;;;6.03;2.73;;;7.30;99.90;;;;;;5000996;28;20212;-85
2022/04/22 01:23:01;;;;;;;7.20;3.90;;;;;;;;;;4998898;28;20635;-85
2022/04/22 01:25:27;;;;;;;7.57;4.87;;;7.30;99.90;;;;;;5015606;28;20192;-85
2022/04/22 01:27:54;;;;;;;5.40;4.00;;;7.30;99.90;;;;;;4997551;28;20638;-86
2022/04/22 01:30:21;;;;;;;5.00;3.30;;;7.30;99.90;;;;;;5015318;28;20189;-86
2022/04/22 01:32:56;;;;;;;6.33;4.53;;;7.30;99.90;;;;;;5014761;28;20181;-86
2022/04/22 01:35:23;;;;;;;7.37;3.87;;;7.30;99.90;;;;;;5019430;28;20177;-85
2022/04/22 01:37:49;;;;;;;5.87;3.43;;;7.30;99.90;;;;;;5020841;28;20186;-85
2022/04/22 01:40:15;;;;;;;3.27;2.97;;;7.30;99.90;;;;;;5000039;28;20331;-85
2022/04/22 01:42:42;;;;;;;5.07;3.13;;;7.30;99.90;;;;;;5015152;28;20186;-85
2022/04/22 01:45:09;;;;;;;6.20;4.10;;;7.30;99.90;;;;;;5015034;28;20672;-85
2022/04/22 01:47:35;;;;;;;5.03;3.73;;;7.30;99.90;;;;;;5015104;28;20189;-86
2022/04/22 01:50:01;;;;;;;5.33;3.70;;;7.30;99.90;;;;;;5014885;28;20272;-85
2022/04/22 01:52:27;;;;;;;4.60;3.20;;;7.30;99.90;;;;;;5015040;28;20217;-85
2022/04/22 01:54:55;;;;;;;5.00;3.40;;;7.30;99.90;;;;;;4998709;28;20268;-85
2022/04/22 01:57:23;;;;;;;5.63;4.43;;;7.30;99.90;;;;;;5018605;28;20180;-84
2022/04/22 01:59:50;;;;;;;2.77;2.50;;;7.30;99.90;;;;;;4983722;28;20188;-85
2022/04/22 02:02:17;;;;;;;2.63;2.43;;;7.30;99.90;;;;;;5015145;28;20264;-85
2022/04/22 02:04:43;;;;;;;3.97;3.13;;;7.30;99.90;;;;;;4997035;28;20217;-86
2022/04/22 02:07:09;;;;;;;3.07;2.77;;;7.40;99.90;;;;;;4997321;28;20189;-85
2022/04/22 02:09:35;;;;;;;3.50;2.03;;;7.30;99.90;;;;;;4997292;28;20187;-85
2022/04/22 02:12:02;;;;;;;9.97;6.07;;;7.30;99.90;;;;;;4996651;28;20185;-85
2022/04/22 02:14:27;;;;;;;11.43;6.17;;;7.30;99.90;;;;;;5014594;28;20275;-84
2022/04/22 02:16:53;;;;;;;9.57;6.13;;;7.30;99.90;;;;;;5014279;28;20256;-85
2022/04/22 02:19:19;;;;;;;4.47;3.73;;;;;;;;;;5014368;28;20634;-85
2022/04/22 02:21:46;;;;;;;6.00;4.00;;;7.30;99.90;;;;;;5014263;28;20658;-86
2022/04/22 02:24:12;;;;;;;6.20;3.00;;;7.30;99.90;;;;;;5014566;28;20236;-84
2022/04/22 02:29:23;;;;;;;2.00;1.80;;;7.30;99.90;;;;;;5016795;28;20207;-84
2022/04/22 02:31:53;;;;;;;2.63;2.13;;;7.30;99.90;;;;;;5014569;28;20189;-85
2022/04/22 02:34:22;;;;;;;2.63;1.77;;;7.30;99.90;;;;;;5014485;28;20260;-85
2022/04/22 02:36:50;;;;;;;1.17;1.17;;;7.30;99.90;;;;;;4997873;28;20231;-84
2022/04/22 02:39:16;;;;;;;1.87;0.90;;;7.30;99.90;;;;;;5016708;28;20626;-84
2022/04/22 02:47:11;;;;;;;2.63;0.80;;;7.10;99.90;;;;;;5013970;28;20256;-85
2022/04/22 02:49:37;;;;;;;0.80;0.77;;;7.00;99.90;;;;;;4996336;28;20616;-84
2022/04/22 02:52:03;;;;;;;1.33;1.20;;;7.00;99.90;;;;;;4996666;28;20189;-84
2022/04/22 02:54:30;;;;;;;0.80;0.80;;;6.90;99.90;;;;;;5014146;28;20233;-85
2022/04/22 02:56:57;;;;;;;0.87;0.80;;;6.90;99.90;;;;;;4995637;28;20212;-86
2022/04/22 02:59:23;;;;;;;0.40;0.40;;;6.80;99.90;;;;;;4996727;28;20188;-85
2022/04/22 03:01:49;;;;;;;0.50;0.50;;;;;;;;;;5013797;28;20177;-84
2022/04/22 03:04:16;;;;;;;0.80;0.80;;;6.70;99.90;;;;;;5013717;28;20220;-85
2022/04/22 03:06:42;;;;;;;0.43;0.43;;;6.70;99.90;;;;;;5013823;28;20230;-83
2022/04/22 03:09:08;;;;;;;0.40;0.40;;;6.70;99.90;;;;;;5013537;28;20181;-84
2022/04/22 03:11:34;;;;;;;0.67;0.67;;;6.60;99.90;;;;;;5013712;28;20255;-83
2022/04/22 03:14:00;;;;;;;0.40;0.40;;;4.70;99.90;;;;;;5013250;28;20267;-85
2022/04/22 03:16:27;;;;;;;0.50;0.50;;;6.60;99.90;;;;;;4995990;28;20280;-84
2022/04/22 03:18:52;;;;;;;0.47;0.47;;;6.60;99.90;;;;;;5013098;28;20185;-85
2022/04/22 03:21:18;;;;;;;0.83;0.83;;;6.60;99.90;;;;;;4996640;28;20191;-83
2022/04/22 03:23:44;;;;;;;1.60;1.30;;;6.60;99.90;;;;;;5022119;28;20732;-83
2022/04/22 03:26:10;;;;;;;2.50;1.97;;;6.70;99.90;;;;;;5023551;28;20178;-83
2022/04/22 03:28:36;;;;;;;1.70;1.33;;;6.60;99.90;;;;;;4997190;28;20264;-85
2022/04/22 03:31:01;;;;;;;0.90;0.90;;;6.60;99.90;;;;;;4995872;28;20268;-84
2022/04/22 03:33:27;;;;;;;1.73;1.63;;;6.60;99.90;;;;;;4996385;28;20181;-83
2022/04/22 03:35:53;;;;;;;1.13;1.07;;;6.60;99.90;;;;;;4995910;28;20182;-85
2022/04/22 03:38:19;;;;;;;1.93;0.80;;;6.60;99.90;;;;;;4995690;28;20185;-84
2022/04/22 03:40:47;;;;;;;1.90;1.10;;;6.50;99.90;;;;;;4995741;28;20653;-84
2022/04/22 03:43:13;;;;;;;0.63;0.63;;;;;;;;;;5013150;28;20221;-84
2022/04/22 03:45:39;;;;;;;2.27;0.70;;;6.50;99.90;;;;;;4996114;28;20195;-84
2022/04/22 03:48:08;;;;;;;0.60;0.60;;;6.50;99.90;;;;;;4995177;28;20260;-84
2022/04/22 03:50:36;;;;;;;0.80;0.80;;;6.40;99.90;;;;;;5013298;28;20181;-84
2022/04/22 03:53:05;;;;;;;0.60;0.60;;;6.40;99.90;;;;;;4995665;28;20235;-84
2022/04/22 03:55:32;;;;;;;2.47;0.90;;;6.40;99.90;;;;;;4996244;28;20225;-83
2022/04/22 03:58:10;;;;;;;0.50;0.50;;;6.40;99.90;;;;;;5013547;28;20177;-84
2022/04/22 04:00:47;;;;;;;0.80;0.80;;;6.40;99.90;;;;;;4998115;28;20188;-83
2022/04/22 04:03:18;;;;;;;0.87;0.87;;;6.40;99.90;;;;;;5013037;28;20740;-85
2022/04/22 04:05:49;;;;;;;0.50;0.50;;;6.30;99.90;;;;;;4998051;28;20178;-83
2022/04/22 04:08:16;;;;;;;0.60;0.60;;;6.30;99.90;;;;;;5019067;28;20176;-84
2022/04/22 04:16:11;;;;;;;0.70;0.70;;;6.30;99.90;;;;;;5023196;28;20255;-84
2022/04/22 04:18:38;;;;;;;0.50;0.50;;;6.30;99.90;;;;;;5005684;28;20190;-85
2022/04/22 04:23:51;;;;;;;0.70;0.70;;;6.30;99.90;;;;;;5016761;28;20207;-84
2022/04/22 04:26:18;;;;;;;0.73;0.73;;;6.30;99.90;;;;;;5016181;28;20185;-84
2022/04/22 04:28:47;;;;;;;0.77;0.60;;;6.30;99.90;;;;;;4982806;28;20177;-84
2022/04/22 04:31:13;;;;;;;0.47;0.47;;;6.30;99.90;;;;;;4998943;28;20181;-84
2022/04/22 04:33:40;;;;;;;0.60;0.60;;;6.30;99.90;;;;;;5016557;28;20223;-83
2022/04/22 04:36:10;;;;;;;0.67;0.67;;;6.30;99.90;;;;;;4998408;28;20232;-83
2022/04/22 04:38:40;;;;;;;0.50;0.50;;;6.40;99.90;;;;;;5016090;28;20185;-84
2022/04/22 04:41:08;;;;;;;0.40;0.40;;;6.40;99.90;;;;;;5015744;28;20213;-83
2022/04/22 04:43:35;;;;;;;0.50;0.50;;;6.40;99.90;;;;;;4998375;28;20212;-83
2022/04/22 04:46:01;;;;;;;0.50;0.50;;;6.40;99.90;;;;;;5011130;28;20221;-86
2022/04/22 04:48:27;;;;;;;0.80;0.80;;;6.40;99.90;;;;;;5005809;28;20186;-82
2022/04/22 04:50:54;;;;;;;0.80;0.63;;;6.40;99.90;;;;;;4995848;28;20197;-83
2022/04/22 04:53:21;;;;;;;0.50;0.50;;;6.50;99.90;;;;;;4977761;28;20626;-83
2022/04/22 04:55:47;;;;;;;0.60;0.60;;;6.40;99.90;;;;;;4984766;28;20300;-83
2022/04/22 04:58:13;;;;;;;1.20;0.97;;;;;;;;;;4999703;28;20684;-83
2022/04/22 05:00:39;;;;;;;0.50;0.50;;;6.50;99.90;;;;;;5001346;28;20182;-83
2022/04/22 05:03:05;;;;;;;0.83;0.77;;;6.50;99.90;;;;;;5011444;28;20213;-83
2022/04/22 05:05:31;;;;;;;0.67;0.67;;;6.50;99.90;;;;;;5012875;28;20185;-82
2022/04/22 05:07:59;;;;;;;0.43;0.43;;;6.50;99.90;;;;;;5006928;28;20197;-84
2022/04/22 05:10:26;;;;;;;0.97;0.80;;;6.60;99.90;;;;;;5002436;28;20232;-82
2022/04/22 05:12:52;;;;;;;0.50;0.50;;;6.60;99.90;;;;;;5003948;28;20189;-82
2022/04/22 05:15:19;;;;;;;0.83;0.83;;;6.60;99.90;;;;;;5012176;28;20243;-83
2022/04/22 05:17:46;;;;;;;0.50;0.50;;;6.60;99.90;;;;;;4989227;28;20542;-82
2022/04/22 05:20:14;;;;;;;0.73;0.73;;;6.60;99.90;;;;;;4998514;28;20178;-83
2022/04/22 05:22:40;;;;;;;0.70;0.70;;;6.60;99.90;;;;;;4964636;28;20186;-83
2022/04/22 05:25:08;;;;;;;1.00;1.00;;;6.70;99.90;;;;;;4997939;28;20284;-83
2022/04/22 05:27:34;;;;;;;1.37;1.27;;;6.70;99.90;;;;;;5013524;28;20505;-83
2022/04/22 05:32:48;;;;;;;1.30;1.20;;;6.60;99.90;;;;;;4998803;28;20208;-83
2022/04/22 05:35:19;;;;;;;3.57;1.97;;;6.60;99.90;;;;;;4995677;28;20244;-82
2022/04/22 05:37:50;;;;;;;1.40;1.20;;;6.80;99.90;;;;;;5011644;28;20212;-83
2022/04/22 05:40:18;;;;;;;1.70;1.60;;;6.70;99.90;;;;;;4977597;28;20204;-82
2022/04/22 05:42:44;;;;;;;2.50;1.40;;;;;;;;;;5005595;28;20181;-82
2022/04/22 05:45:12;;;;;;;2.80;1.57;;;6.70;99.90;;;;;;4999291;28;20225;-82
2022/04/22 05:47:38;;;;;;;7.63;1.43;;;6.80;99.90;;;;;;4985619;28;20727;-82
2022/04/22 05:50:06;;;;;;;1.87;1.60;;;6.80;99.90;;;;;;5013632;28;20276;-82
2022/04/22 05:52:34;;;;;;;4.53;2.43;;;6.80;99.90;;;;;;4980273;28;20332;-81
2022/04/22 05:55:04;;;;;;;2.60;1.80;;;6.80;99.90;;;;;;4976106;28;20224;-85
2022/04/22 05:57:30;;;;;;;2.13;1.93;;;6.80;99.90;;;;;;5007502;28;20705;-84
2022/04/22 05:59:57;;;;;;;2.37;2.03;;;;;;;;;;4983551;28;20209;-82
2022/04/22 06:02:22;;;;;;;2.73;2.53;;;6.70;99.90;;;;;;5011804;28;20193;-83
2022/04/22 06:04:48;;;;;;;3.87;1.90;;;6.60;99.90;;;;;;5002224;28;20216;-84
2022/04/22 06:07:14;;;;;;;3.27;2.20;;;;;;;;;;4986996;28;20204;-82
2022/04/22 06:12:24;;;;;;;2.37;2.17;;;6.50;99.90;;;;;;5006523;28;20204;-83
2022/04/22 06:14:50;;;;;;;1.73;1.63;;;6.50;99.90;;;;;;4991953;28;20205;-83
2022/04/22 06:17:16;;;;;;;2.60;2.30;;;6.50;99.90;;;;;;4988750;28;20205;-84
2022/04/22 06:19:42;;;;;;;4.83;2.00;;;6.50;99.90;;;;;;4989117;28;20284;-83
2022/04/22 06:22:07;;;;;;;3.73;2.83;;;6.60;99.90;;;;;;4982975;28;20268;-85
2022/04/22 06:24:33;;;;;;;3.00;2.13;;;6.60;99.90;;;;;;4986293;28;20304;-83
2022/04/22 06:26:58;;;;;;;4.40;3.33;;;6.60;99.90;;;;;;5009976;28;20285;-83
2022/04/22 06:29:24;;;;;;;2.97;2.23;;;6.60;99.90;;;;;;4955330;28;20308;-82
2022/04/22 06:31:50;;;;;;;4.33;2.30;;;6.70;99.90;;;;;;5003137;28;20248;-83
2022/04/22 06:34:17;;;;;;;3.27;2.70;;;6.70;99.90;;;;;;5003512;28;20189;-84
2022/04/22 06:36:43;;;;;;;3.03;2.70;;;6.70;99.90;;;;;;4980237;28;20200;-83
2022/04/22 06:39:09;;;;;;;3.23;2.47;;;6.70;99.90;;;;;;4997667;28;20186;-83
2022/04/22 06:47:04;;;;;;;3.20;2.53;;;;;;;;;;4996779;28;20560;-83
2022/04/22 06:49:30;;;;;;;3.97;3.53;;;7.00;99.90;;;;;;5004811;28;20196;-82
2022/04/22 06:51:56;;;;;;;3.03;2.73;;;7.00;99.90;;;;;;4975200;28;20188;-83
2022/04/22 06:54:22;;;;;;;3.87;2.97;;;7.00;99.90;;;;;;5006748;28;20178;-81
2022/04/22 06:56:49;;;;;;;3.27;3.03;;;7.00;99.90;;;;;;5006353;28;20517;-83
2022/04/22 06:59:19;;;;;;;4.90;3.83;;;;;;;;;;5003873;28;20194;-84
2022/04/22 07:01:46;;;;;;;4.70;2.50;;;7.00;99.90;;;;;;4973195;28;20605;-80
2022/04/22 07:04:12;;;;;;;4.47;3.73;;;7.00;99.90;;;;;;4986040;28;20214;-82
2022/04/22 07:06:38;;;;;;;4.60;3.97;;;6.90;99.90;;;;;;5004593;28;20698;-83
2022/04/22 07:09:04;;;;;;;8.20;3.80;;;6.90;99.90;;;;;;4986275;28;20197;-84
2022/04/22 07:11:31;;;;;;;3.43;3.00;;;6.90;99.90;;;;;;5011668;28;20261;-83
2022/04/22 07:13:59;;;;;;;4.50;2.80;;;6.80;99.90;;;;;;4999047;28;20190;-82
2022/04/22 07:16:25;;;;;;;4.70;3.67;;;6.90;99.90;;;;;;4999204;28;20201;-82
2022/04/22 07:18:55;;;;;;;3.73;3.00;;;7.10;99.90;;;;;;5007216;28;20190;-83
2022/04/22 07:21:25;;;;;;;4.30;2.87;;;6.80;99.90;;;;;;4992735;28;20196;-82
2022/04/22 07:23:52;;;;;;;7.00;4.00;;;6.90;99.90;;;;;;5011847;28;20244;-85
2022/04/22 07:26:20;;;;;;;3.50;2.80;;;6.90;99.90;;;;;;5012500;28;20173;-83
2022/04/22 07:28:47;;;;;;;3.63;3.27;;;7.00;99.90;;;;;;5013072;28;20201;-83
2022/04/22 07:31:18;;;;;;;8.17;4.73;;;7.00;99.90;;;;;;4996524;28;20181;-87
2022/04/22 07:33:44;;;;;;;3.53;2.87;;;7.10;99.90;;;;;;5014925;28;20181;-82
2022/04/22 07:36:09;;;;;;;3.07;2.77;;;7.10;99.90;;;;;;4996976;28;20707;-82
2022/04/22 07:38:35;;;;;;;5.80;2.70;;;7.10;99.90;;;;;;5013818;28;20199;-83
2022/04/22 07:41:02;;;;;;;9.90;4.00;;;7.10;99.90;;;;;;5013350;28;20177;-82
2022/04/22 07:48:57;;;;;;;2.83;2.60;;;7.30;99.90;;;;;;4982551;28;20523;-84
2022/04/22 07:51:25;;;;;;;6.63;4.03;;;7.40;99.90;;;;;;5003476;28;20251;-83
2022/04/22 07:53:51;;;;;;;4.33;3.23;;;7.40;99.90;;;;;;5015752;28;20182;-83
2022/04/22 07:56:17;;;;;;;4.83;3.67;;;7.50;99.90;;;;;;4998085;28;20327;-87
2022/04/22 07:58:43;;;;;;;3.03;2.17;;;7.50;99.90;;;;;;5016583;28;20267;-84
2022/04/22 08:01:09;;;;;;;5.10;3.40;;;7.50;99.90;;;;;;4999080;28;20177;-84
2022/04/22 08:03:36;;;;;;;3.73;3.07;;;7.70;99.90;;;;;;4999352;28;20358;-83
2022/04/22 08:06:02;;;;;;;4.73;3.20;;;;;;;;;;5016439;28;20258;-83
2022/04/22 08:08:30;;;;;;;4.67;3.00;;;7.90;99.90;;;;;;4997364;28;20725;-83
2022/04/22 08:10:56;;;;;;;5.60;3.33;;;7.90;99.90;;;;;;5015270;28;20182;-84
2022/04/22 08:13:24;;;;;;;6.50;3.50;;;8.10;99.90;;;;;;5016412;28;20192;-82
2022/04/22 08:15:49;;;;;;;3.60;2.47;;;8.10;99.90;;;;;;4999311;28;20174;-82
2022/04/22 08:18:15;;;;;;;4.13;3.57;;;8.10;99.90;;;;;;4998208;28;20189;-83
2022/04/22 08:20:40;;;;;;;3.90;3.13;;;8.10;99.90;;;;;;5015847;28;20185;-84
2022/04/22 08:23:06;;;;;;;3.50;3.17;;;8.30;99.90;;;;;;4998189;28;20190;-85
2022/04/22 08:25:32;;;;;;;4.40;2.90;;;8.50;99.90;;;;;;4998210;28;20193;-85
2022/04/22 08:27:57;;;;;;;2.90;2.57;;;8.70;99.90;;;;;;5015691;28;20184;-84
2022/04/22 08:30:23;;;;;;;4.33;2.73;;;8.80;99.90;;;;;;4981813;28;20193;-84
2022/04/22 08:32:49;;;;;;;4.63;2.77;;;8.70;99.90;;;;;;5016028;28;20196;-83
2022/04/22 08:35:15;;;;;;;2.50;1.93;;;8.60;99.90;;;;;;5015845;28;20182;-82
2022/04/22 08:37:45;;;;;;;2.33;2.10;;;8.60;99.90;;;;;;5015424;28;20658;-82
2022/04/22 08:40:11;;;;;;;2.33;2.13;;;8.50;99.90;;;;;;5016397;28;20186;-82
2022/04/22 08:42:40;;;;;;;5.47;3.40;;;8.60;99.90;;;;;;4981856;28;20217;-83
2022/04/22 08:45:08;;;;;;;2.53;1.70;;;8.60;99.90;;;;;;5015329;28;20217;-82
2022/04/22 08:50:19;;;;;;;3.27;2.40;;;8.70;99.90;;;;;;5015588;28;20204;-84
2022/04/22 08:53:03;;;;;;;2.27;2.03;;;8.80;99.90;;;;;;5012018;28;20189;-82
2022/04/22 08:55:30;;;;;;;3.40;2.50;;;9.00;99.90;;;;;;5014958;28;20324;-83
2022/04/22 08:57:56;;;;;;;2.10;1.90;;;9.00;99.90;;;;;;5015519;28;20260;-85
2022/04/22 09:00:26;;;;;;;5.23;3.13;;;9.20;99.90;;;;;;5015428;28;20260;-84
2022/04/22 09:02:57;;;;;;;4.03;2.80;;;9.20;99.90;;;;;;5015162;28;20174;-84
2022/04/22 09:05:24;;;;;;;4.60;3.20;;;9.20;99.90;;;;;;4996994;28;20189;-84
2022/04/22 09:07:51;;;;;;;2.93;2.43;;;8.80;99.90;;;;;;4996728;28;20177;-83
2022/04/22 09:10:17;;;;;;;2.20;2.00;;;9.50;99.90;;;;;;5014433;28;20709;-83
2022/04/22 09:12:50;;;;;;;2.60;2.37;;;9.70;99.90;;;;;;5013316;28;20268;-83
2022/04/22 09:15:16;;;;;;;2.03;1.83;;;9.70;99.90;;;;;;5011004;28;20178;-83
2022/04/22 09:17:41;;;;;;;2.27;2.07;;;9.60;99.90;;;;;;4972444;28;20182;-83
2022/04/22 09:20:13;;;;;;;2.00;1.80;;;9.50;99.90;;;;;;4996255;28;20185;-82
2022/04/22 09:22:38;;;;;;;3.00;1.90;;;9.30;99.90;;;;;;5013280;28;20165;-84
2022/04/22 09:25:07;;;;;;;3.07;2.27;;;9.20;99.90;;;;;;5013572;28;20223;-83
2022/04/22 09:27:35;;;;;;;1.93;1.77;;;9.00;99.90;;;;;;5012832;28;20193;-83
2022/04/22 09:30:07;;;;;;;1.57;1.47;;;9.00;99.90;;;;;;5012950;28;20229;-84
2022/04/22 09:32:38;;;;;;;2.47;1.63;;;9.00;99.90;;;;;;4996568;28;20193;-85
2022/04/22 09:35:15;;;;;;;2.10;1.33;;;9.30;99.90;;;;;;4995153;28;20260;-86
2022/04/22 09:43:45;;;;;;;4.47;1.80;;;9.40;99.90;;;;;;5013381;28;20725;-85
2022/04/22 09:46:30;;;;;;;2.47;2.10;;;9.40;99.90;;;;;;5013567;28;20173;-85
2022/04/22 09:48:56;;;;;;;1.93;1.73;;;9.70;99.90;;;;;;5014547;28;20174;-82
2022/04/22 09:51:28;;;;;;;1.73;1.63;;;9.60;99.90;;;;;;4981272;28;20185;-84
2022/04/22 09:54:10;;;;;;;1.67;1.17;;;9.40;99.90;;;;;;5014220;28;20220;-83
2022/04/22 09:56:38;;;;;;;2.10;1.70;;;9.20;99.90;;;;;;5014259;28;20195;-83
2022/04/22 09:59:26;;;;;;;2.00;1.80;;;9.20;99.90;;;;;;5014582;28;20189;-85
2022/04/22 10:01:52;;;;;;;2.30;1.77;;;9.60;99.90;;;;;;4996190;28;20182;-84
2022/04/22 10:04:20;;;;;;;3.65;2.20;;;10.00;99.90;;;;;;5013939;28;20342;-83
2022/04/22 10:06:46;;;;;;;1.92;1.45;;;10.30;99.90;;;;;;5013974;28;20204;-83
2022/04/22 10:09:16;;;;;;;1.60;1.50;;;10.70;99.90;;;;;;5014620;28;20192;-83
2022/04/22 10:11:47;;;;;;;1.70;1.55;;;10.90;99.90;;;;;;4995365;28;20177;-84
2022/04/22 10:14:13;;;;;;;2.40;1.37;;;10.90;99.90;;;;;;5013287;28;20181;-83
2022/04/22 10:16:39;;;;;;;1.75;1.60;;;10.70;99.90;;;;;;5013900;28;20185;-83
2022/04/22 10:19:07;;;;;;;1.93;1.63;;;10.50;99.90;;;;;;5013768;28;20188;-84
2022/04/22 10:21:33;;;;;;;2.03;1.67;;;10.30;99.90;;;;;;4996432;28;20608;-82
2022/04/22 10:23:59;;;;;;;3.22;1.52;;;10.20;99.90;;;;;;4980022;28;20205;-83
2022/04/22 10:26:29;;;;;;;2.80;2.00;;;10.10;99.90;;;;;;4996269;28;20239;-83
2022/04/22 10:28:56;;;;;;;2.20;2.00;;;9.90;99.90;;;;;;5015498;28;20177;-83
2022/04/22 10:31:23;;;;;;;3.15;2.22;;;9.70;99.90;;;;;;5013877;28;20173;-83
2022/04/22 10:33:49;;;;;;;1.77;1.60;;;9.60;99.90;;;;;;5013435;28;20244;-83
2022/04/22 10:36:19;;;;;;;1.93;1.80;;;9.40;99.90;;;;;;5013608;28;20174;-82
2022/04/22 10:38:50;;;;;;;1.50;1.23;;;9.30;99.90;;;;;;5013992;28;20173;-82
2022/04/22 10:41:20;;;;;;;1.83;1.57;;;9.30;99.90;;;;;;5013735;28;20209;-82
2022/04/22 10:49:54;;;;;;;4.73;2.77;;;9.30;99.90;;;;;;4994049;28;20540;-83
2022/04/22 10:52:21;;;;;;;2.57;1.50;;;9.30;99.90;;;;;;4994023;28;20173;-83
2022/04/22 10:54:53;;;;;;;2.77;2.07;;;9.30;99.90;;;;;;4993361;28;20679;-83
2022/04/22 10:57:21;;;;;;;2.10;1.47;;;9.40;99.90;;;;;;4993712;28;20169;-83
2022/04/22 11:00:12;;;;;;;1.33;1.17;;;9.30;99.90;;;;;;4976112;28;20538;-83
2022/04/22 11:02:42;;;;;;;1.60;1.50;;;9.50;99.90;;;;;;4993482;28;20677;-83
2022/04/22 11:05:25;;;;;;;2.37;1.93;;;9.70;99.90;;;;;;4993951;28;20210;-81
2022/04/22 11:07:51;;;;;;;2.63;1.57;;;9.70;99.90;;;;;;4994155;28;20200;-82
2022/04/22 11:10:22;;;;;;;2.93;1.90;;;9.70;99.90;;;;;;4994280;28;20176;-81
2022/04/22 11:12:55;;;;;;;1.75;1.55;;;9.70;99.90;;;;;;4976601;28;20255;-82
2022/04/22 11:15:42;;;;;;;4.73;1.77;;;9.80;99.90;;;;;;4993864;28;20197;-82
2022/04/22 11:18:09;;;;;;;2.40;2.03;;;9.80;99.90;;;;;;5002443;28;20181;-80
2022/04/22 11:20:45;;;;;;;1.70;1.60;;;9.90;99.90;;;;;;5011917;28;20596;-81
2022/04/22 11:23:14;;;;;;;1.70;1.60;;;9.90;99.90;;;;;;5009700;28;20622;-81
2022/04/22 11:25:41;;;;;;;1.47;1.37;;;9.80;99.90;;;;;;5011903;28;20336;-83
2022/04/22 11:28:08;;;;;;;2.97;2.63;;;9.80;99.90;;;;;;5012310;28;20192;-82
2022/04/22 11:30:34;;;;;;;1.50;1.40;;;9.80;99.90;;;;;;5010315;28;20185;-82
2022/04/22 11:33:16;;;;;;;1.63;1.50;;;9.80;99.90;;;;;;5012243;28;20184;-83
2022/04/22 11:35:41;;;;;;;2.10;1.63;;;9.80;99.90;;;;;;4994626;28;20236;-82
2022/04/22 11:38:07;;;;;;;2.73;1.93;;;9.80;99.90;;;;;;5013406;28;20222;-80
2022/04/22 11:40:37;;;;;;;1.97;1.53;;;9.80;99.90;;;;;;5012697;28;20669;-81
2022/04/22 11:43:16;;;;;;;2.23;1.93;;;9.80;99.90;;;;;;5012872;28;20208;-81
2022/04/22 11:45:43;;;;;;;1.90;1.57;;;9.80;99.90;;;;;;5008244;28;20193;-82
2022/04/22 11:48:11;;;;;;;2.50;1.80;;;9.70;99.90;;;;;;4994929;28;20180;-82
2022/04/22 11:50:41;;;;;;;3.67;2.43;;;9.60;99.90;;;;;;5012385;28;20641;-83
2022/04/22 11:53:14;;;;;;;3.17;2.33;;;9.50;99.90;;;;;;5012293;28;20181;-82
2022/04/22 11:55:43;;;;;;;2.23;2.03;;;9.50;99.90;;;;;;5012794;28;20229;-85
2022/04/22 11:58:17;;;;;;;3.23;2.33;;;9.50;99.90;;;;;;5012262;28;20182;-85
2022/04/22 12:06:17;;;;;;;1.50;1.40;;;9.10;99.90;;;;;;5005976;28;20660;-81
2022/04/22 12:08:53;;;;;;;3.43;2.57;;;9.00;99.90;;;;;;5012689;28;20622;-80
2022/04/22 12:11:21;;;;;;;3.23;2.00;;;9.10;99.90;;;;;;4990815;28;20263;-81
2022/04/22 12:13:48;;;;;;;1.70;1.60;;;9.10;99.90;;;;;;5012226;28;20561;-81
2022/04/22 12:16:19;;;;;;;1.83;1.43;;;9.20;99.90;;;;;;5012995;28;20181;-80
2022/04/22 12:18:48;;;;;;;2.53;1.37;;;9.20;99.90;;;;;;4979430;28;20236;-80
2022/04/22 12:21:14;;;;;;;2.33;1.70;;;9.30;99.90;;;;;;5013238;28;20251;-81
2022/04/22 12:23:46;;;;;;;2.73;1.50;;;9.30;99.90;;;;;;5013206;28;20288;-81
2022/04/22 12:26:31;;;;;;;2.77;2.00;;;9.30;99.90;;;;;;4995578;28;20268;-79
2022/04/22 12:29:01;;;;;;;1.10;1.00;;;9.50;99.90;;;;;;4997134;28;20181;-80
2022/04/22 12:31:29;;;;;;;1.50;1.35;;;9.70;99.90;;;;;;4999170;28;20268;-80
2022/04/22 12:34:04;;;;;;;2.33;2.13;;;9.90;99.90;;;;;;4999101;28;20216;-79
2022/04/22 12:36:34;;;;;;;1.83;1.73;;;10.10;99.90;;;;;;5008705;28;20184;-79
2022/04/22 12:38:59;;;;;;;2.03;1.73;;;10.50;99.90;;;;;;5017120;28;20177;-79
2022/04/22 12:41:25;;;;;;;1.60;1.50;;;10.80;99.90;;;;;;5016459;28;20185;-81
2022/04/22 12:43:53;;;;;;;6.85;3.03;;;10.90;99.90;;;;;;4998626;28;20666;-81
2022/04/22 12:52:10;;;;;;;4.35;1.60;;;12.20;99.90;;;;;;5008167;28;20240;-81
2022/04/22 12:54:37;;;;;;;1.88;1.67;;;12.70;99.90;;;;;;5014860;28;20225;-83
2022/04/22 12:57:06;;;;;;;2.13;1.50;;;13.00;99.90;;;;;;4998423;28;20177;-81
2022/04/22 12:59:43;;;;;;;1.63;1.23;;;13.20;99.90;;;;;;5016107;28;20187;-81
2022/04/22 13:02:09;;;;;;;1.88;1.75;;;13.50;99.90;;;;;;5015812;28;20552;-81
2022/04/22 13:04:53;;;;;;;2.25;1.42;;;13.90;99.90;;;;;;4998863;28;20201;-80
2022/04/22 13:07:19;;;;;;;2.50;1.60;;;13.80;99.90;;;;;;4998320;28;20188;-81
2022/04/22 13:09:46;;;;;;;4.05;2.13;;;14.00;99.90;;;;;;5015474;28;20174;-81
2022/04/22 13:12:12;;;;;;;1.33;1.13;;;13.90;99.90;;;;;;4981860;28;20542;-82
2022/04/22 13:14:37;;;;;;;2.50;1.65;;;14.00;99.90;;;;;;5013448;28;21433;-81
2022/04/22 13:17:03;;;;;;;1.85;1.42;;;13.80;99.90;;;;;;4998600;28;20314;-81
2022/04/22 13:19:30;;;;;;;2.25;1.40;;;13.40;99.90;;;;;;5015122;28;20276;-81
2022/04/22 13:21:55;;;;;;;2.05;1.30;;;13.10;99.90;;;;;;4997849;28;20784;-81
2022/04/22 13:24:21;;;;;;;2.88;1.92;;;12.70;99.90;;;;;;5016118;28;20215;-82
2022/04/22 13:26:47;;;;;;;2.85;1.67;;;12.40;99.90;;;;;;5000997;28;20185;-81
2022/04/22 13:29:12;;;;;;;1.75;1.65;;;12.10;99.90;;;;;;5002835;28;20185;-82
2022/04/22 13:31:38;;;;;;;1.40;1.30;;;11.80;99.90;;;;;;5001724;28;20188;-81
2022/04/22 13:34:04;;;;;;;1.88;1.55;;;11.70;99.90;;;;;;5001971;28;20189;-82
2022/04/22 13:36:31;;;;;;;2.08;1.20;;;11.50;99.90;;;;;;5016871;28;20692;-81
2022/04/22 13:38:57;;;;;;;2.67;1.80;;;11.50;99.90;;;;;;5018276;28;20177;-80
2022/04/22 13:41:23;;;;;;;2.30;1.77;;;11.40;99.90;;;;;;5017506;28;20177;-80
2022/04/22 13:43:49;;;;;;;1.35;1.25;;;11.20;99.90;;;;;;5020041;28;20283;-81
2022/04/22 13:54:27;;;;;;;3.65;2.45;;;10.90;99.90;;;;;;5014545;28;20665;-82
2022/04/22 13:56:53;;;;;;;2.08;1.45;;;10.80;99.90;;;;;;5014466;28;20186;-82
2022/04/22 13:59:19;;;;;;;5.25;1.65;;;10.70;99.90;;;;;;5014641;28;20190;-82
2022/04/22 14:01:44;;;;;;;3.72;2.15;;;10.60;99.90;;;;;;5014163;28;20531;-82
2022/04/22 14:04:10;;;;;;;2.42;1.77;;;10.50;99.90;;;;;;4996652;28;20304;-84
2022/04/22 14:06:37;;;;;;;2.30;1.10;;;10.50;99.90;;;;;;5014186;28;20208;-80
2022/04/22 14:09:02;;;;;;;1.27;1.17;;;10.50;99.90;;;;;;5014212;28;20193;-80
2022/04/22 14:11:30;;;;;;;3.75;1.60;;;10.50;99.90;;;;;;5014050;28;20181;-81
2022/04/22 14:13:57;;;;;;;1.88;1.23;;;10.40;99.90;;;;;;4980097;28;20653;-81
2022/04/22 14:16:23;;;;;;;2.78;1.38;;;10.40;99.90;;;;;;5014195;28;20182;-81